createdAt,value
2018-10-06T00:01:16.974Z,67.70
2018-10-06T00:03:44.324Z,67.80
2018-10-06T00:06:11.853Z,68.50
2018-10-06T00:08:39.024Z,67.60
2018-10-06T00:11:06.260Z,67.60
2018-10-06T00:13:33.419Z,67.90
2018-10-06T00:16:00.630Z,67.90
2018-10-06T00:18:27.791Z,68.10
2018-10-06T00:20:54.989Z,68.20
2018-10-06T00:23:22.174Z,68.30
2018-10-06T00:25:49.376Z,69.10
2018-10-06T00:28:16.501Z,68.60
2018-10-06T00:30:43.706Z,68.40
2018-10-06T00:33:10.882Z,68.60
2018-10-06T00:35:38.080Z,68.80
2018-10-06T00:38:05.278Z,69.00
2018-10-06T00:40:32.556Z,69.10
2018-10-06T00:43:00.136Z,69.20
2018-10-06T00:45:27.441Z,69.10
2018-10-06T00:47:54.667Z,69.20
2018-10-06T00:50:21.829Z,69.00
2018-10-06T00:52:49.109Z,68.90
2018-10-06T00:55:16.455Z,69.00
2018-10-06T00:57:43.902Z,69.00
2018-10-06T01:00:11.183Z,68.90
2018-10-06T01:02:38.485Z,69.10
2018-10-06T01:05:05.611Z,69.10
2018-10-06T01:07:32.816Z,69.40
2018-10-06T01:09:59.950Z,69.40
2018-10-06T01:12:27.332Z,69.20
2018-10-06T01:14:54.664Z,69.30
2018-10-06T01:17:21.751Z,69.30
2018-10-06T01:19:48.931Z,69.60
2018-10-06T01:22:16.119Z,69.90
2018-10-06T01:24:43.493Z,70.00
2018-10-06T01:27:10.990Z,70.10
2018-10-06T01:29:38.109Z,70.20
2018-10-06T01:32:05.199Z,70.30
2018-10-06T01:34:32.592Z,70.30
2018-10-06T01:37:00.119Z,70.30
2018-10-06T01:39:27.207Z,70.50
2018-10-06T01:41:54.433Z,70.60
2018-10-06T01:44:21.606Z,70.60
2018-10-06T01:46:51.844Z,70.60
2018-10-06T01:49:19.665Z,70.70
2018-10-06T01:51:46.754Z,70.90
2018-10-06T01:54:14.156Z,71.00
2018-10-06T01:56:41.623Z,71.10
2018-10-06T01:59:08.788Z,71.10
2018-10-06T02:01:35.927Z,71.30
2018-10-06T02:04:03.068Z,71.50
2018-10-06T02:06:30.163Z,71.70
2018-10-06T02:08:57.762Z,71.80
2018-10-06T02:11:25.146Z,71.80
2018-10-06T02:13:52.301Z,71.60
2018-10-06T02:16:19.446Z,71.50
2018-10-06T02:18:46.554Z,71.60
2018-10-06T02:21:13.680Z,71.50
2018-10-06T02:23:40.881Z,71.90
2018-10-06T02:26:08.003Z,72.00
2018-10-06T02:28:35.141Z,72.20
2018-10-06T02:31:02.354Z,72.30
2018-10-06T02:45:09.427Z,72.40
2018-10-06T02:50:35.822Z,72.60
2018-10-06T02:53:02.945Z,72.70
2018-10-06T02:55:30.089Z,72.90
2018-10-06T02:57:57.388Z,72.90
2018-10-06T03:00:24.497Z,73.40
2018-10-06T03:02:51.628Z,73.50
2018-10-06T03:05:18.763Z,73.50
2018-10-06T03:07:45.944Z,73.30
2018-10-06T03:10:13.093Z,73.20
2018-10-06T03:12:40.313Z,73.20
2018-10-06T03:15:07.429Z,73.50
2018-10-06T03:17:34.557Z,74.80
2018-10-06T03:20:01.977Z,74.80
2018-10-06T03:22:29.078Z,74.80
2018-10-06T03:24:56.180Z,74.80
2018-10-06T03:27:23.606Z,74.80
2018-10-06T03:29:50.724Z,75.20
2018-10-06T03:32:18.165Z,75.60
2018-10-06T03:34:45.179Z,75.50
2018-10-06T03:37:12.308Z,75.60
2018-10-06T03:39:39.423Z,75.80
2018-10-06T03:42:06.529Z,75.80
2018-10-06T03:44:33.629Z,75.70
2018-10-06T03:47:00.731Z,75.60
2018-10-06T03:49:28.254Z,75.60
2018-10-06T03:51:55.383Z,75.60
2018-10-06T03:54:22.630Z,75.30
2018-10-06T03:56:50.160Z,75.40
2018-10-06T03:59:17.264Z,75.90
2018-10-06T04:01:44.344Z,75.00
2018-10-06T04:04:11.507Z,75.30
2018-10-06T04:06:38.742Z,75.30
2018-10-06T04:09:07.341Z,75.60
2018-10-06T04:11:34.812Z,75.40
2018-10-06T04:14:02.021Z,75.50
2018-10-06T04:16:29.229Z,75.60
2018-10-06T04:18:56.326Z,75.60
2018-10-06T04:21:23.434Z,75.50
2018-10-06T04:23:50.928Z,75.60
2018-10-06T04:26:18.129Z,75.60
2018-10-06T04:28:45.442Z,75.70
2018-10-06T04:31:12.546Z,76.10
2018-10-06T04:33:39.736Z,76.10
2018-10-06T04:36:07.029Z,76.30
2018-10-06T04:38:34.234Z,76.50
2018-10-06T04:41:01.381Z,76.70
2018-10-06T04:43:28.527Z,76.80
2018-10-06T04:45:55.987Z,76.80
2018-10-06T04:48:23.091Z,76.80
2018-10-06T04:50:50.193Z,77.10
2018-10-06T04:53:17.390Z,77.00
2018-10-06T04:55:44.462Z,77.20
2018-10-06T04:58:11.573Z,77.20
2018-10-06T05:00:38.741Z,77.20
2018-10-06T05:03:06.123Z,77.20
2018-10-06T05:05:33.241Z,77.30
2018-10-06T05:08:00.660Z,77.60
2018-10-06T05:10:27.773Z,77.50
2018-10-06T05:12:54.924Z,77.50
2018-10-06T05:15:22.051Z,77.60
2018-10-06T05:17:49.134Z,77.70
2018-10-06T05:20:16.246Z,77.70
2018-10-06T05:22:43.340Z,77.50
2018-10-06T05:25:10.775Z,77.70
2018-10-06T05:27:37.886Z,77.80
2018-10-06T05:30:05.032Z,77.70
2018-10-06T05:32:32.382Z,77.60
2018-10-06T05:34:59.524Z,77.40
2018-10-06T05:37:26.648Z,77.10
2018-10-06T05:39:53.755Z,77.00
2018-10-06T05:42:20.956Z,77.00
2018-10-06T05:44:48.133Z,76.70
2018-10-06T05:47:15.424Z,76.70
2018-10-06T05:49:43.310Z,76.50
2018-10-06T05:52:10.739Z,76.30
2018-10-06T05:54:38.235Z,76.10
2018-10-06T05:57:05.627Z,76.10
2018-10-06T05:59:33.156Z,75.70
2018-10-06T06:02:00.649Z,75.60
2018-10-06T06:04:28.055Z,75.60
2018-10-06T06:06:55.567Z,75.40
2018-10-06T06:09:22.958Z,75.30
2018-10-06T06:11:50.109Z,75.20
2018-10-06T06:14:17.454Z,75.20
2018-10-06T06:16:44.842Z,74.80
2018-10-06T06:19:12.037Z,73.70
2018-10-06T06:21:39.500Z,73.30
2018-10-06T06:24:06.601Z,72.70
2018-10-06T06:26:33.695Z,72.50
2018-10-06T06:29:00.872Z,72.30
2018-10-06T06:31:28.077Z,72.00
2018-10-06T06:33:55.163Z,71.80
2018-10-06T06:36:22.622Z,71.40
2018-10-06T06:38:50.060Z,71.30
2018-10-06T06:41:17.263Z,71.10
2018-10-06T06:43:45.469Z,71.10
2018-10-06T06:46:12.654Z,71.00
2018-10-06T06:48:40.039Z,71.00
2018-10-06T06:51:07.328Z,70.50
2018-10-06T06:53:34.774Z,70.30
2018-10-06T06:56:02.171Z,70.00
2018-10-06T06:58:29.720Z,69.80
2018-10-06T07:00:57.184Z,69.80
2018-10-06T07:03:24.638Z,69.40
2018-10-06T07:05:52.128Z,69.10
2018-10-06T07:08:19.438Z,68.90
2018-10-06T07:10:47.020Z,68.90
2018-10-06T07:13:14.388Z,68.90
2018-10-06T07:15:41.784Z,68.40
2018-10-06T07:18:09.310Z,68.40
2018-10-06T07:20:36.469Z,67.90
2018-10-06T07:23:03.744Z,67.50
2018-10-06T07:25:31.068Z,67.30
2018-10-06T07:27:58.236Z,66.90
2018-10-06T07:30:25.770Z,67.00
2018-10-06T07:32:53.249Z,66.50
2018-10-06T07:35:20.580Z,66.40
2018-10-06T07:37:48.598Z,66.00
2018-10-06T07:40:16.047Z,65.80
2018-10-06T07:42:43.532Z,64.90
2018-10-06T07:45:10.958Z,64.60
2018-10-06T07:47:38.408Z,64.40
2018-10-06T07:50:05.930Z,64.20
2018-10-06T07:52:33.353Z,64.10
2018-10-06T07:55:00.513Z,63.70
2018-10-06T07:57:27.827Z,63.10
2018-10-06T07:59:55.263Z,62.90
2018-10-06T08:02:22.642Z,63.00
2018-10-06T08:04:50.510Z,62.80
2018-10-06T08:07:18.226Z,62.10
2018-10-06T08:09:45.494Z,62.10
2018-10-06T08:12:12.884Z,62.10
2018-10-06T08:14:40.126Z,62.20
2018-10-06T08:17:07.382Z,62.10
2018-10-06T08:19:34.903Z,62.30
2018-10-06T08:22:02.103Z,62.30
2018-10-06T08:24:29.263Z,61.90
2018-10-06T08:26:56.785Z,61.40
2018-10-06T08:29:24.340Z,61.50
2018-10-06T08:31:51.762Z,61.20
2018-10-06T08:34:18.944Z,61.20
2018-10-06T08:36:46.443Z,61.10
2018-10-06T08:39:13.759Z,60.80
2018-10-06T08:41:41.243Z,60.40
2018-10-06T08:44:08.632Z,60.70
2018-10-06T08:46:36.079Z,60.50
2018-10-06T08:49:03.370Z,60.40
2018-10-06T08:51:30.623Z,60.20
2018-10-06T08:53:58.038Z,60.30
2018-10-06T08:56:25.284Z,60.30
2018-10-06T08:58:53.096Z,60.50
2018-10-06T09:01:20.993Z,60.20
2018-10-06T09:03:48.278Z,60.00
2018-10-06T09:06:15.456Z,59.70
2018-10-06T09:08:42.652Z,59.50
2018-10-06T09:11:10.236Z,59.20
2018-10-06T09:13:38.114Z,59.00
2018-10-06T09:16:05.820Z,58.80
2018-10-06T09:18:32.963Z,58.70
2018-10-06T09:21:00.127Z,58.60
2018-10-06T09:23:27.341Z,58.60
2018-10-06T09:25:54.460Z,58.20
2018-10-06T09:28:22.039Z,58.30
2018-10-06T09:30:49.083Z,58.20
2018-10-06T09:33:16.253Z,57.70
2018-10-06T09:35:43.636Z,57.60
2018-10-06T09:38:11.047Z,57.40
2018-10-06T09:40:38.480Z,57.10
2018-10-06T09:43:05.673Z,57.20
2018-10-06T09:45:32.919Z,57.40
2018-10-06T09:48:00.415Z,57.50
2018-10-06T09:50:27.589Z,57.40
2018-10-06T09:52:54.755Z,57.30
2018-10-06T09:55:21.896Z,57.30
2018-10-06T09:57:49.048Z,57.30
2018-10-06T10:00:20.836Z,56.90
2018-10-06T10:02:53.816Z,57.10
2018-10-06T10:05:27.081Z,56.70
2018-10-06T10:07:54.386Z,56.90
2018-10-06T10:10:21.638Z,56.70
2018-10-06T10:12:48.788Z,56.40
2018-10-06T10:15:15.924Z,56.10
2018-10-06T10:17:43.188Z,55.60
2018-10-06T10:20:10.304Z,55.30
2018-10-06T10:22:37.478Z,55.30
2018-10-06T10:25:04.604Z,54.90
2018-10-06T10:27:31.749Z,55.10
2018-10-06T10:29:58.875Z,55.00
2018-10-06T10:32:26.048Z,54.60
2018-10-06T10:34:53.200Z,54.60
2018-10-06T10:37:20.554Z,55.00
2018-10-06T10:39:47.777Z,54.80
2018-10-06T10:42:15.091Z,54.90
2018-10-06T10:44:42.268Z,54.90
2018-10-06T10:47:09.590Z,54.90
2018-10-06T10:49:36.760Z,54.70
2018-10-06T10:52:04.231Z,54.80
2018-10-06T10:54:31.491Z,55.00
2018-10-06T10:56:58.943Z,55.00
2018-10-06T10:59:26.128Z,55.10
2018-10-06T11:01:53.483Z,55.00
2018-10-06T11:04:20.567Z,54.80
2018-10-06T11:06:47.732Z,54.70
2018-10-06T11:09:14.831Z,54.40
2018-10-06T11:11:41.973Z,54.30
2018-10-06T11:14:09.116Z,54.50
2018-10-06T11:16:36.661Z,54.50
2018-10-06T11:19:03.814Z,54.30
2018-10-06T11:21:30.891Z,54.30
2018-10-06T11:23:58.150Z,53.90
2018-10-06T11:26:25.307Z,54.00
2018-10-06T11:28:52.468Z,53.80
2018-10-06T11:31:19.705Z,53.90
2018-10-06T11:33:47.220Z,53.30
2018-10-06T11:36:14.360Z,53.20
2018-10-06T11:38:41.502Z,52.90
2018-10-06T11:41:08.753Z,53.00
2018-10-06T11:43:35.884Z,52.80
2018-10-06T11:46:03.014Z,53.00
2018-10-06T11:48:30.250Z,53.30
2018-10-06T11:50:57.453Z,53.30
2018-10-06T11:53:24.596Z,53.60
2018-10-06T11:55:51.748Z,53.40
2018-10-06T11:58:18.858Z,53.60
2018-10-06T12:00:46.044Z,53.30
2018-10-06T12:03:13.244Z,53.30
2018-10-06T12:05:40.562Z,53.30
2018-10-06T12:08:07.660Z,52.70
2018-10-06T12:10:34.856Z,53.10
2018-10-06T12:13:02.052Z,53.00
2018-10-06T12:15:29.171Z,52.90
2018-10-06T12:17:56.260Z,52.80
2018-10-06T12:20:23.366Z,52.50
2018-10-06T12:22:50.549Z,52.20
2018-10-06T12:25:17.817Z,52.00
2018-10-06T12:27:44.964Z,51.50
2018-10-06T12:30:12.117Z,51.40
2018-10-06T12:32:39.239Z,51.20
2018-10-06T12:35:06.486Z,50.70
2018-10-06T12:37:33.686Z,50.30
2018-10-06T12:40:00.858Z,50.30
2018-10-06T12:42:27.959Z,50.10
2018-10-06T12:44:55.088Z,50.10
2018-10-06T12:47:22.345Z,50.40
2018-10-06T12:49:49.680Z,50.30
2018-10-06T12:52:16.852Z,50.30
2018-10-06T12:54:44.243Z,50.50
2018-10-06T12:57:11.520Z,50.80
2018-10-06T12:59:38.744Z,50.70
2018-10-06T13:02:06.336Z,51.00
2018-10-06T13:04:33.508Z,50.60
2018-10-06T13:07:00.647Z,50.50
2018-10-06T13:09:27.834Z,51.20
2018-10-06T13:11:55.232Z,51.50
2018-10-06T13:14:22.328Z,51.70
2018-10-06T13:16:49.816Z,51.70
2018-10-06T13:19:17.236Z,51.90
2018-10-06T13:21:44.707Z,52.10
2018-10-06T13:24:11.835Z,52.20
2018-10-06T13:26:39.001Z,52.00
2018-10-06T13:29:06.117Z,52.50
2018-10-06T13:31:33.347Z,51.80
2018-10-06T13:34:00.480Z,51.00
2018-10-06T13:36:27.805Z,51.10
2018-10-06T13:38:55.223Z,51.10
2018-10-06T13:41:22.352Z,50.80
2018-10-06T13:43:49.756Z,51.00
2018-10-06T13:46:16.931Z,51.30
2018-10-06T13:48:44.246Z,51.20
2018-10-06T13:51:11.359Z,51.30
2018-10-06T13:53:38.837Z,51.10
2018-10-06T13:56:06.007Z,51.20
2018-10-06T13:58:33.134Z,51.10
2018-10-06T14:01:00.357Z,51.00
2018-10-06T14:03:27.503Z,50.80
2018-10-06T14:05:54.801Z,50.70
2018-10-06T14:08:21.953Z,50.60
2018-10-06T14:10:49.243Z,50.60
2018-10-06T14:13:16.353Z,50.70
2018-10-06T14:15:43.651Z,50.80
2018-10-06T14:18:10.821Z,50.80
2018-10-06T14:20:38.496Z,50.90
2018-10-06T14:23:05.660Z,51.00
2018-10-06T14:25:32.799Z,51.10
2018-10-06T14:28:00.018Z,51.70
2018-10-06T14:30:27.253Z,50.80
2018-10-06T14:32:54.358Z,50.90
2018-10-06T14:35:21.444Z,50.60
2018-10-06T14:37:48.592Z,50.60
2018-10-06T14:40:15.855Z,50.40
2018-10-06T14:42:42.990Z,50.50
2018-10-06T14:45:10.220Z,50.40
2018-10-06T14:47:37.439Z,50.40
2018-10-06T14:50:05.152Z,50.00
2018-10-06T14:52:32.356Z,50.20
2018-10-06T14:54:59.795Z,50.40
2018-10-06T14:57:27.261Z,50.30
2018-10-06T14:59:55.837Z,50.60
2018-10-06T15:02:23.435Z,50.70
2018-10-06T15:04:50.840Z,49.90
2018-10-06T15:07:18.270Z,49.90
2018-10-06T15:09:45.771Z,50.50
2018-10-06T15:12:13.293Z,49.90
2018-10-06T15:14:40.688Z,50.20
2018-10-06T15:17:08.157Z,50.30
2018-10-06T15:19:35.579Z,50.50
2018-10-06T15:22:03.022Z,50.60
2018-10-06T15:24:30.257Z,50.70
2018-10-06T15:26:57.481Z,50.90
2018-10-06T15:29:24.583Z,50.80
2018-10-06T15:31:52.023Z,50.90
2018-10-06T15:34:19.153Z,50.50
2018-10-06T15:36:46.454Z,51.00
2018-10-06T15:39:13.557Z,51.10
2018-10-06T15:41:40.712Z,51.30
2018-10-06T15:44:07.906Z,51.30
2018-10-06T15:46:35.200Z,51.40
2018-10-06T15:49:02.512Z,51.40
2018-10-06T15:51:29.793Z,51.60
2018-10-06T15:53:57.300Z,51.60
2018-10-06T15:56:24.653Z,51.70
2018-10-06T15:58:51.986Z,51.80
2018-10-06T16:01:19.144Z,52.00
2018-10-06T16:03:46.350Z,52.10
2018-10-06T16:06:13.549Z,52.50
2018-10-06T16:08:41.013Z,52.80
2018-10-06T16:11:08.570Z,53.00
2018-10-06T16:13:35.925Z,53.40
2018-10-06T16:16:03.380Z,53.60
2018-10-06T16:18:30.933Z,53.80
2018-10-06T16:20:58.459Z,53.90
2018-10-06T16:23:25.787Z,54.20
2018-10-06T16:25:53.275Z,54.30
2018-10-06T16:28:20.689Z,54.70
2018-10-06T16:30:47.952Z,55.60
2018-10-06T16:33:15.226Z,55.30
2018-10-06T16:35:42.450Z,55.50
2018-10-06T16:38:09.693Z,55.70
2018-10-06T16:40:37.145Z,55.90
2018-10-06T16:43:04.601Z,56.20
2018-10-06T16:45:33.192Z,56.30
2018-10-06T16:48:00.749Z,56.40
2018-10-06T16:50:28.171Z,56.60
2018-10-06T16:52:55.272Z,56.80
2018-10-06T16:55:22.781Z,57.10
2018-10-06T16:57:50.132Z,57.30
2018-10-06T17:00:17.814Z,57.40
2018-10-06T17:02:44.982Z,57.70
2018-10-06T17:05:12.120Z,58.00
2018-10-06T17:07:39.563Z,58.20
2018-10-06T17:10:07.206Z,58.40
2018-10-06T17:12:34.704Z,58.90
2018-10-06T17:15:01.960Z,59.00
2018-10-06T17:17:30.159Z,59.30
2018-10-06T17:19:57.760Z,59.70
2018-10-06T17:22:25.082Z,59.80
2018-10-06T17:24:52.322Z,60.10
2018-10-06T17:27:19.699Z,60.30
2018-10-06T17:29:47.096Z,60.40
2018-10-06T17:32:14.495Z,60.60
2018-10-06T17:34:42.120Z,60.70
2018-10-06T17:37:09.425Z,60.70
2018-10-06T17:39:37.371Z,60.80
2018-10-06T17:42:04.874Z,60.90
2018-10-06T17:44:32.422Z,60.90
2018-10-06T17:46:59.743Z,60.90
2018-10-06T17:49:27.142Z,60.90
2018-10-06T17:51:54.740Z,61.00
2018-10-06T17:54:22.355Z,61.00
2018-10-06T17:56:50.084Z,60.90
2018-10-06T17:59:17.490Z,61.00
2018-10-06T18:01:44.781Z,61.00
2018-10-06T18:04:12.669Z,61.20
2018-10-06T18:06:40.128Z,61.30
2018-10-06T18:09:07.873Z,60.70
2018-10-06T18:11:36.194Z,61.00
2018-10-06T18:14:03.916Z,61.10
2018-10-06T18:16:31.178Z,61.10
2018-10-06T18:18:58.715Z,61.10
2018-10-06T18:21:26.344Z,61.10
2018-10-06T18:23:53.705Z,61.10
2018-10-06T18:26:20.989Z,61.00
2018-10-06T18:28:48.516Z,61.10
2018-10-06T18:31:15.952Z,61.10
2018-10-06T18:33:43.522Z,61.30
2018-10-06T18:36:10.864Z,61.10
2018-10-06T18:38:38.256Z,61.10
2018-10-06T18:41:06.134Z,61.10
2018-10-06T18:43:33.671Z,61.30
2018-10-06T18:46:01.233Z,61.40
2018-10-06T18:48:29.011Z,61.50
2018-10-06T18:50:56.426Z,61.50
2018-10-06T18:53:23.944Z,61.60
2018-10-06T18:55:51.377Z,61.70
2018-10-06T18:58:18.775Z,61.90
2018-10-06T19:00:46.239Z,62.10
2018-10-06T19:03:13.806Z,62.00
2018-10-06T19:05:40.891Z,62.20
2018-10-06T19:08:08.254Z,62.40
2018-10-06T19:10:35.604Z,62.50
2018-10-06T19:13:02.990Z,62.70
2018-10-06T19:15:30.410Z,62.80
2018-10-06T19:17:57.506Z,63.00
2018-10-06T19:20:25.445Z,63.00
2018-10-06T19:22:52.616Z,63.00
2018-10-06T19:25:20.080Z,63.00
2018-10-06T19:27:47.423Z,62.90
2018-10-06T19:30:14.574Z,62.90
2018-10-06T19:32:41.932Z,63.00
2018-10-06T19:35:09.373Z,63.10
2018-10-06T19:37:36.825Z,63.20
2018-10-06T19:40:04.359Z,63.40
2018-10-06T19:42:31.810Z,63.40
2018-10-06T19:44:58.932Z,63.50
2018-10-06T19:47:26.253Z,63.50
2018-10-06T19:49:53.474Z,63.50
2018-10-06T19:52:20.812Z,63.50
2018-10-06T19:54:48.054Z,63.50
2018-10-06T19:57:15.265Z,63.40
2018-10-06T19:59:42.767Z,63.40
2018-10-06T20:02:10.156Z,63.40
2018-10-06T20:04:37.699Z,63.50
2018-10-06T20:07:05.784Z,64.40
2018-10-06T20:09:33.374Z,63.80
2018-10-06T20:12:00.753Z,64.20
2018-10-06T20:14:27.922Z,64.40
2018-10-06T20:16:55.435Z,64.70
2018-10-06T20:19:22.776Z,65.10
2018-10-06T20:21:50.342Z,65.30
2018-10-06T20:24:17.690Z,65.40
2018-10-06T20:26:45.118Z,65.30
2018-10-06T20:29:12.601Z,65.70
2018-10-06T20:31:40.945Z,66.00
2018-10-06T20:34:08.351Z,66.30
2018-10-06T20:36:35.853Z,66.40
2018-10-06T20:39:05.250Z,66.40
2018-10-06T20:41:32.747Z,66.40
2018-10-06T20:44:00.586Z,66.60
2018-10-06T20:46:28.081Z,66.60
2018-10-06T20:48:55.394Z,66.80
2018-10-06T20:51:23.017Z,67.00
2018-10-06T20:53:50.246Z,67.10
2018-10-06T20:56:17.541Z,67.00
2018-10-06T20:58:45.366Z,67.20
2018-10-06T21:01:12.793Z,67.50
2018-10-06T21:03:40.266Z,67.10
2018-10-06T21:06:08.064Z,67.10
2018-10-06T21:08:35.563Z,66.90
2018-10-06T21:11:03.040Z,66.80
2018-10-06T21:13:30.240Z,66.80
2018-10-06T21:15:57.630Z,66.80
2018-10-06T21:18:25.236Z,66.70
2018-10-06T21:20:52.588Z,66.60
2018-10-06T21:23:20.174Z,66.50
2018-10-06T21:25:47.721Z,66.70
2018-10-06T21:28:14.912Z,66.70
2018-10-06T21:30:42.139Z,66.60
2018-10-06T21:33:10.296Z,66.80
2018-10-06T21:35:37.518Z,66.90
2018-10-06T21:38:06.425Z,67.00
2018-10-06T21:40:33.744Z,67.20
2018-10-06T21:43:00.881Z,67.50
2018-10-06T21:45:28.343Z,67.60
2018-10-06T21:47:55.801Z,67.80
2018-10-06T21:50:23.087Z,67.80
2018-10-06T21:52:50.596Z,67.80
2018-10-06T21:55:18.544Z,67.80
2018-10-06T21:57:45.892Z,67.80
2018-10-06T22:00:13.490Z,67.80
2018-10-06T22:02:40.877Z,67.60
2018-10-06T22:05:08.290Z,67.60
2018-10-06T22:07:35.765Z,67.60
2018-10-06T22:10:03.239Z,67.40
2018-10-06T22:12:30.706Z,67.20
2018-10-06T22:14:58.105Z,67.00
2018-10-06T22:17:25.382Z,66.90
2018-10-06T22:19:52.987Z,66.40
2018-10-06T22:22:20.544Z,66.10
2018-10-06T22:24:47.725Z,66.20
2018-10-06T22:27:14.861Z,65.90
2018-10-06T22:29:42.046Z,65.60
2018-10-06T22:32:09.470Z,65.50
2018-10-06T22:34:36.886Z,64.80
2018-10-06T22:37:04.400Z,65.00
2018-10-06T22:39:31.841Z,64.80
2018-10-06T22:41:59.286Z,64.80
2018-10-06T22:44:26.547Z,64.80
2018-10-06T22:46:53.845Z,64.80
2018-10-06T22:49:21.300Z,64.80
2018-10-06T22:51:48.782Z,64.80
2018-10-06T22:54:16.124Z,64.80
2018-10-06T22:56:43.851Z,64.70
2018-10-06T22:59:11.073Z,64.90
2018-10-06T23:01:38.544Z,64.70
2018-10-06T23:04:05.661Z,64.80
2018-10-06T23:06:33.051Z,65.10
2018-10-06T23:09:00.443Z,66.00
2018-10-06T23:11:27.562Z,65.20
2018-10-06T23:13:55.096Z,65.10
2018-10-06T23:16:22.215Z,65.30
2018-10-06T23:18:49.413Z,65.40
2018-10-06T23:21:16.570Z,65.50
2018-10-06T23:23:43.848Z,65.70
2018-10-06T23:26:11.119Z,65.90
2018-10-06T23:28:39.092Z,66.10
2018-10-06T23:31:06.320Z,66.30
2018-10-06T23:33:33.510Z,66.50
2018-10-06T23:36:00.786Z,66.80
2018-10-06T23:38:27.912Z,67.10
2018-10-06T23:40:55.086Z,67.40
2018-10-06T23:43:22.466Z,67.60
2018-10-06T23:45:49.939Z,68.00
2018-10-06T23:48:17.337Z,68.20
2018-10-06T23:50:44.841Z,68.40
2018-10-06T23:53:12.232Z,68.40
2018-10-06T23:55:40.029Z,68.50
2018-10-06T23:58:07.575Z,68.40
